Latest Weather Observations for Stenhouse Bay

IDS60801

Issued at 8:35 pm CST Monday 1 September 2014 (issued every 30 minutes, with the page automatically refreshed every 10 minutes)

About weather observations | Map of weather stations | Latest weather observations for SA | Other Formats
Station Details ID: 022049 Name: STENHOUSE BAY Lat: -35.28 Lon: 136.94 Height: 42.0 m
Data from the previous 72 hours. | See also: Recent months at Stenhouse Bay
Date/Time
CST
Temp
°C
App
Temp
°C
Dew
Point
Rel
Hum
%
Delta-T
°C
Wind Press
QNH
hPa
Press
MSL
hPa
Rain
since 9 am
mm
Dir
 
Spd
km/h
Gust
km/h
Spd
kts
Gust
kts
01/08:30pm 11.5 3.2 4.0 60 3.3 SW 37 54 20 29 1019.1 1019.1 4.0
01/08:23pm 11.4 3.5 4.4 62 3.1 SW 35 54 19 29 1019.1 1019.1 4.0
01/08:00pm 11.3 3.3 5.6 68 2.6 SW 37 50 20 27 1018.8 1018.8 4.0
01/07:30pm 11.1 3.7 5.2 67 2.7 SW 33 52 18 28 1018.3 1018.3 4.0
01/07:01pm 10.8 4.0 6.9 77 1.9 SW 32 56 17 30 1017.9 1017.9 4.0
01/07:00pm 11.0 4.7 7.3 78 1.8 SW 30 44 16 24 1017.8 1017.8 4.0
01/06:30pm 9.5 4.5 7.9 90 0.8 SSW 24 33 13 18 1017.6 1017.6 3.8
01/06:00pm 9.7 4.6 7.6 87 1.0 WSW 24 35 13 19 1017.0 1017.0 2.2
01/05:30pm 8.9 1.9 6.7 86 1.0 WSW 33 46 18 25 1016.8 1016.8 2.0
01/05:11pm 9.3 0.0 7.4 88 0.9 SW 46 67 25 36 1016.5 1016.5 1.6
01/05:00pm 9.4 -0.6 7.7 89 0.8 SW 50 67 27 36 1016.3 1016.3 1.6
01/04:57pm 9.8 -1.4 7.7 87 1.0 SW 56 67 30 36 1016.2 1016.2 1.0
01/04:55pm 10.9 4.3 7.8 81 1.5 WSW 32 63 17 34 1016.1 1016.1 0.6
01/04:30pm 12.5 6.2 7.2 70 2.6 SW 30 43 16 23 1015.7 1015.7 0.2
01/04:00pm 12.4 5.6 7.5 72 2.4 SW 33 44 18 24 1015.4 1015.4 0.2
01/03:30pm 13.0 7.0 8.5 74 2.2 SW 30 41 16 22 1015.1 1015.1 0.2
01/03:00pm 11.2 5.4 9.5 89 0.9 SW 30 46 16 25 1014.8 1014.8 0.2
01/02:30pm 13.0 8.5 8.7 75 2.2 WSW 22 30 12 16 1014.5 1014.5 0.0
01/02:00pm 14.7 9.8 8.4 66 3.2 WSW 24 37 13 20 1014.6 1014.6 0.0
01/01:30pm 13.8 8.2 8.6 71 2.6 WSW 28 37 15 20 1014.5 1014.5 0.0
01/01:09pm 15.0 9.5 9.1 68 3.0 WSW 28 50 15 27 1014.5 1014.5 0.0
01/01:00pm 16.0 10.9 6.2 52 4.8 WSW 22 33 12 18 1014.6 1014.6 0.0
01/12:30pm 15.3 10.2 6.1 54 4.4 WSW 22 33 12 18 1014.7 1014.7 0.0
01/12:00pm 14.4 9.2 7.2 62 3.5 WSW 24 37 13 20 1014.8 1014.8 0.0
01/11:30am 15.1 10.3 7.2 59 3.9 WSW 22 32 12 17 1014.9 1014.9 0.0
01/11:00am 15.0 10.5 6.8 58 4.0 WSW 20 30 11 16 1014.8 1014.8 0.0
01/10:30am 14.5 9.2 6.6 59 3.8 WSW 24 33 13 18 1014.6 1014.6 0.0
01/10:00am 14.1 8.4 6.5 60 3.7 WSW 26 35 14 19 1014.6 1014.6 0.0
01/09:30am 13.9 8.6 7.0 63 3.4 WSW 24 35 13 19 1014.4 1014.4 0.0
01/09:00am 13.8 8.6 7.3 65 3.2 WSW 24 37 13 20 1014.2 1014.2 4.2
01/08:30am 13.3 8.1 7.1 66 3.0 SW 24 37 13 20 1014.0 1014.0 4.2
01/08:00am 12.5 7.7 7.4 71 2.5 SW 22 30 12 16 1013.7 1013.7 4.2
01/07:30am 12.5 7.1 7.8 73 2.3 SW 26 35 14 19 1013.3 1013.3 4.2
01/07:00am 12.3 7.8 8.6 78 1.8 SW 22 30 12 16 1013.0 1013.0 4.2
01/06:30am 12.3 7.4 8.4 77 1.9 SW 24 32 13 17 1012.8 1012.8 4.2
01/06:00am 12.0 7.5 8.5 79 1.7 SW 22 32 12 17 1012.4 1012.4 4.2
01/05:30am 12.1 7.6 8.6 79 1.7 WSW 22 33 12 18 1012.1 1012.1 4.2
01/05:00am 11.6 7.6 9.0 84 1.3 WSW 20 28 11 15 1011.9 1011.9 4.0
01/04:30am 12.6 8.0 9.8 83 1.4 SW 24 33 13 18 1011.6 1011.6 3.8
01/04:00am 12.7 8.4 9.5 81 1.6 SW 22 32 12 17 1011.4 1011.4 3.8
01/03:30am 12.6 8.3 9.4 81 1.6 SW 22 32 12 17 1011.1 1011.1 3.8
01/03:00am 12.2 9.2 10.8 91 0.7 WSW 17 22 9 12 1011.4 1011.4 3.8
01/02:30am 11.9 7.2 10.6 92 0.7 SW 26 33 14 18 1011.4 1011.4 3.8
01/02:01am 12.1 7.1 10.8 92 0.7 SW 28 46 15 25 1011.7 1011.7 3.4
01/02:00am 12.3 7.7 11.0 92 0.7 SW 26 46 14 25 1011.7 1011.7 3.0
01/01:30am 12.8 10.0 11.2 90 0.8 WSW 17 22 9 12 1011.7 1011.7 2.4
01/01:00am 13.1 9.9 11.3 89 1.0 WSW 19 26 10 14 1011.7 1011.7 2.2
01/12:30am 13.2 10.0 11.3 88 1.0 SW 19 26 10 14 1011.7 1011.7 2.0
01/12:00am 13.5 9.6 10.7 83 1.5 WSW 22 30 12 16 1011.8 1011.8 1.8
 
Date/Time
CST
Temp
°C
App
Temp
°C
Dew
Point
Rel
Hum
%
Delta-T
°C
Wind Press
QNH
hPa
Press
MSL
hPa
Rain
since 9 am
mm
Dir
 
Spd
km/h
Gust
km/h
Spd
kts
Gust
kts
31/11:30pm 13.4 9.1 10.6 83 1.5 WSW 24 32 13 17 1011.7 1011.7 1.8
31/11:00pm 13.3 9.0 10.8 85 1.3 WSW 24 32 13 17 1011.5 1011.5 1.8
31/10:30pm 13.4 10.1 11.5 88 1.0 WSW 20 30 11 16 1011.2 1011.2 1.8
31/10:00pm 13.0 10.1 11.1 88 1.0 WSW 17 22 9 12 1011.3 1011.3 1.8
31/09:30pm 12.9 10.9 11.5 91 0.7 SW 13 22 7 12 1010.9 1010.9 1.8
31/09:00pm 12.8 10.0 11.5 92 0.7 WSW 17 22 9 12 1011.1 1011.1 1.8
31/08:30pm 12.3 8.6 11.4 94 0.5 SW 22 32 12 17 1011.1 1011.1 1.8
31/08:00pm 13.2 10.2 12.6 96 0.3 WSW 20 30 11 16 1011.4 1011.4 1.6
31/07:30pm 13.5 11.1 12.7 95 0.4 W 17 26 9 14 1011.6 1011.6 1.0
31/07:00pm 13.8 11.1 13.0 95 0.4 WSW 19 28 10 15 1011.3 1011.3 0.8
31/06:30pm 14.2 11.9 13.1 93 0.6 WSW 17 24 9 13 1010.8 1010.8 0.0
31/06:00pm 14.9 12.1 13.3 90 0.9 WSW 20 26 11 14 1010.4 1010.4 0.0
31/05:30pm 15.6 12.5 12.2 80 1.9 W 20 32 11 17 1010.3 1010.3 0.0
31/05:00pm 15.8 12.5 9.7 67 3.2 W 17 26 9 14 1009.8 1009.8 0.0
31/04:30pm 16.3 12.6 8.0 58 4.2 WNW 17 24 9 13 1010.2 1010.2 0.0
31/04:00pm 16.4 12.2 7.6 56 4.4 NW 19 28 10 15 1009.6 1009.6 0.0
31/03:30pm 16.3 12.2 8.5 60 4.0 NNW 20 22 11 12 1009.2 1009.2 0.0
31/03:00pm 17.2 12.6 8.1 55 4.6 NNW 22 30 12 16 1010.0 1010.0 0.0
31/02:30pm 17.3 13.1 8.2 55 4.7 NW 20 32 11 17 1010.3 1010.3 0.0
31/02:00pm 17.6 11.9 6.8 49 5.4 NNW 26 33 14 18 1009.8 1009.8 0.0
31/01:30pm 18.5 13.1 6.4 45 6.0 N 24 39 13 21 1010.6 1010.6 0.0
31/01:00pm 17.4 11.5 6.0 47 5.6 N 26 35 14 19 1010.7 1010.7 0.0
31/12:30pm 17.1 10.2 6.6 50 5.2 N 32 43 17 23 1011.2 1011.2 0.0
31/12:00pm 16.6 11.1 5.9 49 5.2 N 24 33 13 18 1010.9 1010.9 0.0
31/11:30am 16.6 10.1 4.9 46 5.6 N 28 39 15 21 1011.8 1011.8 0.0
31/11:00am 16.8 10.4 5.4 47 5.5 N 28 37 15 20 1012.7 1012.7 0.0
31/10:30am 18.0 11.7 5.6 44 6.0 N 28 39 15 21 1013.0 1013.0 0.0
31/10:00am 18.8 12.0 4.9 40 6.7 N 30 41 16 22 1013.0 1013.0 0.0
31/09:30am 17.3 10.8 4.9 44 5.9 N 28 43 15 23 1013.2 1013.2 0.0
31/09:00am 16.4 10.7 6.5 52 4.9 N 26 33 14 18 1013.2 1013.2 0.0
31/08:30am 15.0 9.7 6.8 58 4.0 N 24 33 13 18 1013.1 1013.1 0.0
31/08:00am 14.4 8.9 7.5 63 3.4 N 26 35 14 19 1012.7 1012.7 0.0
31/07:30am 13.6 8.9 7.6 67 3.0 N 22 28 12 15 1013.0 1013.0 0.0
31/07:00am 13.2 8.8 7.2 67 2.9 N 20 26 11 14 1013.1 1013.1 0.0
31/06:30am 13.5 9.4 7.7 68 2.9 N 19 26 10 14 1013.3 1013.3 0.0
31/06:00am 13.6 9.7 6.9 64 3.2 NNW 17 26 9 14 1013.8 1013.8 0.0
31/05:30am 12.9 8.4 6.9 67 2.9 NNW 20 28 11 15 1013.3 1013.3 0.0
31/05:00am 12.7 8.3 6.7 67 2.9 N 19 22 10 12 1013.0 1013.0 0.0
31/04:30am 13.0 8.6 7.2 68 2.8 NNW 20 26 11 14 1013.3 1013.3 0.0
31/04:00am 12.1 7.9 7.4 73 2.3 N 19 22 10 12 1013.2 1013.2 0.0
31/03:30am 11.9 8.5 7.8 76 2.0 N 15 19 8 10 1013.4 1013.4 0.0
31/03:00am 12.0 9.0 7.9 76 2.0 N 13 17 7 9 1013.9 1013.9 0.0
31/02:30am 11.9 7.8 7.8 76 2.0 N 19 22 10 12 1013.9 1013.9 0.0
31/02:00am 11.9 8.5 7.6 75 2.1 N 15 19 8 10 1014.1 1014.1 0.0
31/01:30am 12.1 8.0 7.8 75 2.1 N 19 20 10 11 1014.0 1014.0 0.0
31/01:00am 12.1 9.1 7.6 74 2.2 N 13 17 7 9 1014.8 1014.8 0.0
31/12:30am 12.3 9.2 7.4 72 2.4 N 13 19 7 10 1014.9 1014.9 0.0
31/12:00am 12.5 9.5 7.6 72 2.4 N 13 15 7 8 1015.1 1015.1 0.0
 
Date/Time
CST
Temp
°C
App
Temp
°C
Dew
Point
Rel
Hum
%
Delta-T
°C
Wind Press
QNH
hPa
Press
MSL
hPa
Rain
since 9 am
mm
Dir
 
Spd
km/h
Gust
km/h
Spd
kts
Gust
kts
30/11:30pm 12.9 10.6 7.6 70 2.6 N 9 11 5 6 1015.5 1015.5 0.0
30/11:00pm 13.5 11.5 7.3 66 3.0 N 7 11 4 6 1015.9 1015.9 0.0
30/10:30pm 13.8 11.1 7.3 65 3.2 N 11 13 6 7 1016.0 1016.0 0.0
30/10:00pm 14.4 10.9 7.2 62 3.5 N 15 19 8 10 1016.1 1016.1 0.0
30/09:30pm 14.8 11.0 7.4 61 3.7 N 17 20 9 11 1016.2 1016.2 0.0
30/09:00pm 14.9 11.1 7.5 61 3.7 N 17 20 9 11 1016.4 1016.4 0.0
30/08:30pm 15.0 11.1 7.3 60 3.8 N 17 24 9 13 1016.7 1016.7 0.0
30/08:00pm 14.9 10.9 6.5 57 4.1 N 17 24 9 13 1016.8 1016.8 0.0
30/07:30pm 15.0 10.5 6.3 56 4.2 N 19 22 10 12 1016.9 1016.9 0.0
30/07:00pm 15.0 11.3 6.3 56 4.2 N 15 19 8 10 1017.1 1017.1 0.0
30/06:30pm 15.4 11.7 6.2 54 4.4 N 15 20 8 11 1016.9 1016.9 0.0
30/06:00pm 16.3 12.5 5.9 50 5.0 N 15 17 8 9 1017.0 1017.0 0.0
30/05:30pm 18.1 14.5 5.0 42 6.3 N 13 17 7 9 1017.3 1017.3 0.0
30/05:00pm 19.4 15.2 5.5 40 6.8 N 17 24 9 13 1017.3 1017.3 0.0
30/04:30pm 21.6 16.4 5.5 35 8.0 N 22 30 12 16 1017.2 1017.2 0.0
30/04:00pm 22.4 16.7 4.9 32 8.7 N 24 32 13 17 1017.3 1017.3 0.0
30/03:30pm 23.0 17.5 4.0 29 9.3 N 22 33 12 18 1017.5 1017.5 0.0
30/03:00pm 21.7 15.7 3.4 30 8.8 N 24 32 13 17 1017.8 1017.8 0.0
30/02:30pm 23.1 16.9 4.1 29 9.3 N 26 35 14 19 1018.3 1018.3 0.0
30/02:00pm 22.8 17.1 4.8 31 8.9 N 24 35 13 19 1018.7 1018.7 0.0
30/01:30pm 22.8 16.7 4.8 31 8.9 N 26 35 14 19 1019.1 1019.1 0.0
30/01:00pm 22.6 16.4 4.2 30 9.0 N 26 37 14 20 1019.4 1019.4 0.0
30/12:30pm 22.0 15.8 4.1 31 8.7 N 26 37 14 20 1020.2 1020.2 0.0
30/12:00pm 21.4 15.2 4.5 33 8.2 N 26 35 14 19 1020.5 1020.5 0.0
30/11:30am 21.9 15.4 4.9 33 8.4 N 28 39 15 21 1021.0 1021.0 0.0
30/11:00am 21.8 14.9 4.8 33 8.4 N 30 37 16 20 1021.3 1021.3 0.0
30/10:30am 21.4 15.5 5.7 36 7.8 N 26 35 14 19 1021.4 1021.4 0.0
30/10:00am 20.3 16.9 10.4 53 5.4 N 19 24 10 13 1021.7 1021.7 0.0
30/09:30am 18.3 14.7 10.7 61 4.1 N 20 28 11 15 1022.0 1022.0 0.0
30/09:00am 16.0 13.4 10.7 71 2.8 N 15 22 8 12 1022.2 1022.2 0.0
30/08:30am 14.9 12.6 10.5 75 2.3 N 13 17 7 9 1022.1 1022.1 0.0
30/08:00am 13.1 10.5 9.5 79 1.8 N 13 19 7 10 1021.9 1021.9 0.0
30/07:30am 12.1 8.6 8.8 80 1.6 N 17 20 9 11 1021.7 1021.7 0.0
30/07:00am 11.1 7.9 8.3 83 1.4 N 15 19 8 10 1021.7 1021.7 0.0
30/06:30am 10.6 7.2 7.8 83 1.3 N 15 19 8 10 1021.5 1021.5 0.0
30/06:00am 10.8 7.2 8.4 85 1.2 N 17 22 9 12 1021.2 1021.2 0.0
30/05:30am 10.8 7.7 8.7 87 1.0 N 15 20 8 11 1021.2 1021.2 0.0
30/05:00am 10.4 7.2 8.5 88 0.9 N 15 17 8 9 1021.5 1021.5 0.0
30/04:30am 10.9 7.7 8.3 84 1.3 N 15 19 8 10 1021.8 1021.8 0.0
30/04:00am 11.4 8.1 8.1 80 1.6 N 15 19 8 10 1022.0 1022.0 0.0
30/03:30am 11.9 8.5 7.8 76 2.0 NNW 15 22 8 12 1022.1 1022.1 0.0
30/03:00am 12.1 8.3 7.6 74 2.2 NNW 17 20 9 11 1022.3 1022.3 0.0
30/02:30am 12.3 9.1 7.0 70 2.5 N 13 17 7 9 1022.5 1022.5 0.0
30/02:00am 12.2 9.0 6.9 70 2.5 N 13 15 7 8 1022.5 1022.5 0.0
30/01:30am 13.2 9.6 6.8 65 3.1 NNE 15 20 8 11 1022.6 1022.6 0.0
30/01:00am 15.1 11.2 6.9 58 4.0 NNE 17 20 9 11 1022.7 1022.7 0.0
30/12:30am 15.0 11.3 6.3 56 4.2 NNE 15 20 8 11 1022.9 1022.9 0.0
30/12:00am 14.9 11.0 7.0 59 3.9 NNE 17 22 9 12 1023.0 1023.0 0.0
 
Date/Time
CST
Temp
°C
App
Temp
°C
Dew
Point
Rel
Hum
%
Delta-T
°C
Wind Press
QNH
hPa
Press
MSL
hPa
Rain
since 9 am
mm
Dir
 
Spd
km/h
Gust
km/h
Spd
kts
Gust
kts
29/11:30pm 14.4 11.2 7.0 61 3.6 NNE 13 20 7 11 1023.2 1023.2 0.0
29/11:00pm 14.6 10.9 8.1 65 3.3 NE 17 24 9 13 1023.4 1023.4 0.0
29/10:30pm 15.1 11.2 8.6 65 3.3 NE 19 26 10 14 1023.6 1023.6 0.0
29/10:00pm 15.2 11.7 8.7 65 3.3 NE 17 22 9 12 1023.7 1023.7 0.0
29/09:30pm 14.3 11.8 8.0 66 3.1 NNE 11 17 6 9 1023.9 1023.9 0.0
29/09:00pm 13.7 11.7 8.5 71 2.6 NE 9 15 5 8 1024.0 1024.0 0.0

Other Formats:

Comma delimited format used in spreadsheet applications
http://www.bom.gov.au/fwo/IDS60801/IDS60801.95806.axf

JavaScript Object Notation format (JSON) in row-major order
http://www.bom.gov.au/fwo/IDS60801/IDS60801.95806.json